Flight Track Log - Related Links

Times and Time Zones

All times are in EDT time to prevent confusion due to time zone crossing. See the EJA720 flight status page for this flight to view local times or setup timezone preferences in your user account.

Time Position Orientation Groundspeed Altitude Reporting Facility
EDT Latitude Longitude Course Direction KTS MPH feet Rate Location/Type
Sun 02:10:07 PM 35.2222 -80.9397 11° North 173 199 1,500  Level Atlanta Center
Sun 02:11:08 PM 35.2742 -80.9275 11° North 214 246 4,700 3,049 Climbing Atlanta Center
Sun 02:12:09 PM 35.3036 -80.8603 62° Northeast 267 307 7,700 1,979 Climbing Atlanta Center
Sun 02:12:45 PM 35.2961 -80.8097 100° East 271 312 7,900 393 Climbing Atlanta Center
Sun 02:13:10 PM 35.2969 -80.7689 89° East 278 320 8,100 1,700 Climbing Atlanta Center
Sun 02:13:45 PM 35.2917 -80.7181 97° East 299 344 9,600 2,968 Climbing Atlanta Center
Sun 02:14:45 PM 35.2256 -80.6725 151° Southeast 280 322 12,800 2,900 Climbing Atlanta Center
Sun 02:15:45 PM 35.1369 -80.7092 199° South 286 329 15,400 3,100 Climbing Atlanta Center
Sun 02:16:45 PM 35.0439 -80.7458 198° South 305 351 19,000 2,839 Climbing Atlanta Center
Sun 02:18:51 PM 34.8647 -80.8256 200° South 339 390 24,200 2,355 Climbing Jacksonville Center
Sun 02:19:51 PM 34.7672 -80.8683 200° South 369 425 26,300 1,650 Climbing Jacksonville Center
Sun 02:20:51 PM 34.6550 -80.8961 192° South 398 458 27,500 1,350 Climbing Jacksonville Center
Sun 02:21:51 PM 34.5361 -80.8839 175° South 414 476 29,000 1,500 Climbing Jacksonville Center
Sun 02:22:51 PM 34.4072 -80.9119 190° South 424 488 30,500 1,500 Climbing Jacksonville Center
Sun 02:23:51 PM 34.2908 -80.9447 193° South 424 488 32,000 1,450 Climbing Jacksonville Center
Sun 02:24:51 PM 34.1908 -80.9469 181° South 424 488 33,400 1,450 Climbing Jacksonville Center
Sun 02:25:51 PM 34.0736 -80.9344 175° South 417 480 34,900 1,500 Climbing Jacksonville Center
Sun 02:26:51 PM 33.9611 -80.9394 182° South 417 480 36,400 1,500 Climbing Jacksonville Center
Sun 02:27:51 PM 33.8464 -80.9422 181° South 417 480 37,900 800 Climbing Jacksonville Center
Sun 02:28:51 PM 33.7297 -80.9472 182° South 417 480 38,000 50 Climbing Jacksonville Center
Sun 02:29:51 PM 33.6067 -80.9525 182° South 422 486 38,000  Level Jacksonville Center
Sun 02:30:51 PM 33.4836 -80.9575 182° South 438 504 38,000  Level Jacksonville Center
Sun 02:31:51 PM 33.3603 -80.9603 181° South 438 504 38,000  Level Jacksonville Center
Sun 02:32:51 PM 33.2394 -80.9678 183° South 438 504 38,000  Level Jacksonville Center
Sun 02:33:51 PM 33.1144 -80.9731 182° South 444 511 38,000  Level Jacksonville Center
Sun 02:34:51 PM 32.9911 -80.9756 181° South 444 511 38,000  Level Jacksonville Center
Sun 02:35:51 PM 32.8681 -80.9808 182° South 444 511 38,000  Level Jacksonville Center
Sun 02:36:51 PM 32.7431 -80.9858 182° South 444 511 38,000  Level Jacksonville Center
Sun 02:37:51 PM 32.6178 -80.9908 182° South 444 511 38,000  Level Jacksonville Center
Sun 02:38:51 PM 32.4967 -80.9936 181° South 439 505 38,000  Level Jacksonville Center
Sun 02:39:51 PM 32.3589 -80.9792 175° South 439 505 38,000  Level Jacksonville Center
Sun 02:40:51 PM 32.2500 -80.9667 174° South 449 517 38,000  Level Jacksonville Center
Sun 02:41:51 PM 32.1100 -80.9550 176° South 454 522 38,000  Level Jacksonville Center
Sun 02:42:51 PM 31.9844 -80.9428 175° South 460 529 38,000  Level Jacksonville Center
Sun 02:43:51 PM 31.8736 -80.9356 177° South 460 529 38,000  Level Jacksonville Center
Sun 02:44:51 PM 31.7358 -80.9236 176° South 460 529 38,000  Level Jacksonville Center
Sun 02:45:51 PM 31.6083 -80.9142 176° South 460 529 38,000  Level Jacksonville Center
Sun 02:46:51 PM 31.4953 -80.9044 176° South 460 529 38,000  Level Jacksonville Center
Sun 02:47:51 PM 31.3594 -80.8928 176° South 454 522 38,000  Level Jacksonville Center
Sun 02:48:51 PM 31.2342 -80.8856 177° South 460 529 38,000  Level Jacksonville Center
Sun 02:49:51 PM 31.1064 -80.8714 175° South 455 524 38,000  Level Jacksonville Center
Sun 02:50:51 PM 30.9811 -80.8619 176° South 460 529 38,000  Level Jacksonville Center
Sun 02:51:51 PM 30.8556 -80.8525 176° South 460 529 38,000  Level Jacksonville Center
Sun 02:52:51 PM 30.7322 -80.8408 175° South 460 529 38,000  Level Jacksonville Center
Sun 02:53:51 PM 30.6089 -80.8314 176° South 455 524 38,000  Level Jacksonville Center
Sun 02:54:51 PM 30.4856 -80.8194 175° South 455 524 38,000  Level Jacksonville Center
Sun 02:55:51 PM 30.3603 -80.8103 176° South 455 524 38,000  Level Jacksonville Center
Sun 02:56:51 PM 30.2389 -80.8008 176° South 450 518 38,000 -500 Level Jacksonville Center
Sun 02:57:51 PM 30.1133 -80.7892 175° South 450 518 37,000 -1,000 Descending Jacksonville Center
Sun 02:58:51 PM 29.9903 -80.7822 177° South 445 512 36,000 -500 Descending Jacksonville Center
Sun 02:59:51 PM 29.8647 -80.7706 175° South 445 512 36,000  Level Jacksonville Center
Sun 03:00:51 PM 29.7394 -80.7614 176° South 445 512 36,000  Level Jacksonville Center
Sun 03:01:51 PM 29.6117 -80.7497 175° South 450 518 36,000  Level Jacksonville Center
Sun 03:04:46 PM 29.2542 -80.7236 176° South 457 526 36,000  Level Miami Center
Sun 03:05:46 PM 29.1250 -80.7144 176° South 457 526 36,000  Level Miami Center
Sun 03:06:46 PM 29.0025 -80.7006 174° South 457 526 36,000  Level Miami Center
Sun 03:07:46 PM 28.8683 -80.6414 159° South 477 549 36,000  Level Miami Center
Sun 03:08:46 PM 28.7572 -80.5856 156° South 489 563 36,000 -1,350 Level Miami Center
Sun 03:09:46 PM 28.6211 -80.5194 157° South 483 556 33,300 -2,650 Descending Miami Center
Sun 03:10:46 PM 28.5039 -80.4614 156° South 468 539 30,700 -2,550 Descending Miami Center
Sun 03:11:46 PM 28.3883 -80.4058 157° South 462 532 28,200 -2,500 Descending Miami Center
Sun 03:12:46 PM 28.2828 -80.3647 161° South 447 514 25,700 -2,200 Descending Miami Center
Sun 03:13:46 PM 28.1625 -80.3350 168° South 442 509 23,800 -2,150 Descending Miami Center
Sun 03:14:46 PM 28.0214 -80.3025 169° South 461 531 21,400 -2,000 Descending Miami Center
Sun 03:16:00 PM 27.9424 -80.1766 175° South  Level FlightAware Approximate
Sun 03:16:46 PM 27.7847 -80.2461 175° South 447 514 17,800  Level Miami Center
Sun 03:17:46 PM 27.6850 -80.2244 169° South 412 474 16,000 -1,800 Descending Miami Center
Sun 03:18:46 PM 27.5750 -80.1978 168° South 407 468 14,200 -1,850 Descending Miami Center
Sun 03:19:46 PM 27.4608 -80.1733 169° South 390 449 12,300 -1,700 Descending Miami Center
Sun 03:20:46 PM 27.3653 -80.1494 167° South 368 423 10,800 -1,150 Descending Miami Center
Sun 03:21:46 PM 27.2800 -80.1378 173° South 333 383 10,000 -650 Descending Miami Center
Sun 03:22:46 PM 27.2056 -80.1100 162° South 309 356 9,500 -1,150 Descending Miami Center
Sun 03:23:46 PM 27.1289 -80.0728 157° South 309 356 7,700 -1,850 Descending Miami Center
Sun 03:24:46 PM 27.0464 -80.0333 157° South 304 350 5,800 -1,750 Descending Miami Center
Sun 03:25:46 PM 26.9719 -79.9961 156° South 293 337 4,200 -900 Descending Miami Center
Sun 03:26:46 PM 26.9014 -79.9803 169° South 278 320 4,000 -100 Descending Miami Center
Sun 03:27:46 PM 26.8347 -79.9644 168° South 272 313 4,000  Level Miami Center
Sun 03:29:00 PM 26.7310 -80.0542 265° West  Level Estimated
Sun 03:36:00 PM 26.6832 -80.0956 110° East  Level Estimated
Sun 03:37:00 PM 26.6832 -80.0956 110° East  Level Estimated
Sun 03:38:00 PM 26.6832 -80.0956 110° East  Level Estimated
Sun 03:39:00 PM 26.6832 -80.0956 110° East  Level Estimated
Sun 03:40:00 PM 26.6832 -80.0956 110° East  Level Estimated
Sun 03:41:00 PM 26.6832 -80.0956 110° East  Level Estimated
Sun 03:42:00 PM 26.6832 -80.0956 110° East  Level Estimated

Login

Don't have an account? Register now (free) for customized features, flight alerts, and more!